sensor_id;sensor_type;location;lat;lon;timestamp;pressure;altitude;pressure_sealevel;temperature;humidity
31299;BME280;17927;52.350;13.402;2022-08-01T00:02:03;100821.56;;;27.26;38.31
31299;BME280;17927;52.350;13.402;2022-08-01T00:04:28;100820.50;;;27.27;38.60
31299;BME280;17927;52.350;13.402;2022-08-01T00:06:54;100814.94;;;27.27;38.62
31299;BME280;17927;52.350;13.402;2022-08-01T00:09:19;100811.84;;;27.24;38.54
31299;BME280;17927;52.350;13.402;2022-08-01T00:11:44;100809.31;;;27.22;38.59
31299;BME280;17927;52.350;13.402;2022-08-01T00:14:10;100807.88;;;27.19;38.95
31299;BME280;17927;52.350;13.402;2022-08-01T00:16:36;100812.03;;;27.17;39.12
31299;BME280;17927;52.350;13.402;2022-08-01T00:19:01;100811.44;;;27.15;39.07
31299;BME280;17927;52.350;13.402;2022-08-01T00:21:26;100814.69;;;27.12;38.83
31299;BME280;17927;52.350;13.402;2022-08-01T00:23:51;100815.19;;;27.09;39.05
31299;BME280;17927;52.350;13.402;2022-08-01T00:26:17;100812.94;;;27.05;39.36
31299;BME280;17927;52.350;13.402;2022-08-01T00:28:42;100811.78;;;27.01;39.51
31299;BME280;17927;52.350;13.402;2022-08-01T00:31:07;100823.59;;;26.97;39.70
31299;BME280;17927;52.350;13.402;2022-08-01T00:33:33;100819.06;;;26.90;39.99
31299;BME280;17927;52.350;13.402;2022-08-01T00:35:58;100818.72;;;26.87;39.80
31299;BME280;17927;52.350;13.402;2022-08-01T00:38:23;100814.78;;;26.83;40.16
31299;BME280;17927;52.350;13.402;2022-08-01T00:40:48;100816.34;;;26.79;40.10
31299;BME280;17927;52.350;13.402;2022-08-01T00:43:14;100822.38;;;26.75;40.22
31299;BME280;17927;52.350;13.402;2022-08-01T00:45:39;100823.44;;;26.74;40.45
31299;BME280;17927;52.350;13.402;2022-08-01T00:48:05;100825.91;;;26.71;40.87
31299;BME280;17927;52.350;13.402;2022-08-01T00:50:30;100830.00;;;26.68;40.71
31299;BME280;17927;52.350;13.402;2022-08-01T00:52:57;100825.56;;;26.67;41.19
31299;BME280;17927;52.350;13.402;2022-08-01T00:55:23;100832.19;;;26.66;41.23
31299;BME280;17927;52.350;13.402;2022-08-01T00:57:49;100818.84;;;26.63;41.05
31299;BME280;17927;52.350;13.402;2022-08-01T01:00:15;100820.78;;;26.63;41.34
31299;BME280;17927;52.350;13.402;2022-08-01T01:02:40;100818.50;;;26.59;41.33
31299;BME280;17927;52.350;13.402;2022-08-01T01:05:06;100823.19;;;26.59;41.61
31299;BME280;17927;52.350;13.402;2022-08-01T01:07:44;100805.97;;;26.57;41.61
31299;BME280;17927;52.350;13.402;2022-08-01T01:10:21;100815.03;;;26.52;41.88
31299;BME280;17927;52.350;13.402;2022-08-01T01:12:53;100810.84;;;26.50;42.20
31299;BME280;17927;52.350;13.402;2022-08-01T01:15:46;100811.06;;;26.48;42.07
31299;BME280;17927;52.350;13.402;2022-08-01T01:18:30;100815.66;;;26.42;42.40
31299;BME280;17927;52.350;13.402;2022-08-01T01:26:49;100814.41;;;26.33;43.06
31299;BME280;17927;52.350;13.402;2022-08-01T01:29:27;100815.97;;;26.29;43.26
31299;BME280;17927;52.350;13.402;2022-08-01T01:32:05;100813.47;;;26.27;43.18
31299;BME280;17927;52.350;13.402;2022-08-01T01:34:35;100811.53;;;26.28;43.23
31299;BME280;17927;52.350;13.402;2022-08-01T01:37:02;100812.59;;;26.27;43.10
31299;BME280;17927;52.350;13.402;2022-08-01T01:39:30;100814.78;;;26.25;43.09
31299;BME280;17927;52.350;13.402;2022-08-01T01:41:58;100810.59;;;26.22;43.37
31299;BME280;17927;52.350;13.402;2022-08-01T01:44:25;100806.63;;;26.18;43.50
31299;BME280;17927;52.350;13.402;2022-08-01T01:46:51;100796.56;;;26.12;43.75
31299;BME280;17927;52.350;13.402;2022-08-01T01:49:21;100802.69;;;26.02;43.98
31299;BME280;17927;52.350;13.402;2022-08-01T01:51:50;100793.66;;;25.95;44.39
31299;BME280;17927;52.350;13.402;2022-08-01T01:54:16;100796.34;;;25.90;44.08
31299;BME280;17927;52.350;13.402;2022-08-01T01:56:42;100791.31;;;25.87;44.36
31299;BME280;17927;52.350;13.402;2022-08-01T01:59:16;100790.69;;;25.84;44.68
31299;BME280;17927;52.350;13.402;2022-08-01T02:01:43;100791.19;;;25.81;44.56
31299;BME280;17927;52.350;13.402;2022-08-01T02:04:09;100788.66;;;25.80;44.64
31299;BME280;17927;52.350;13.402;2022-08-01T02:06:36;100790.59;;;25.79;45.16
31299;BME280;17927;52.350;13.402;2022-08-01T02:09:02;100795.50;;;25.77;45.19
31299;BME280;17927;52.350;13.402;2022-08-01T02:11:29;100805.16;;;25.75;45.19
31299;BME280;17927;52.350;13.402;2022-08-01T02:13:58;100810.94;;;25.73;45.45
31299;BME280;17927;52.350;13.402;2022-08-01T02:16:29;100808.91;;;25.68;45.31
31299;BME280;17927;52.350;13.402;2022-08-01T02:18:55;100809.59;;;25.64;45.50
31299;BME280;17927;52.350;13.402;2022-08-01T02:21:26;100804.00;;;25.59;45.90
31299;BME280;17927;52.350;13.402;2022-08-01T02:23:54;100808.31;;;25.54;45.56
31299;BME280;17927;52.350;13.402;2022-08-01T02:26:21;100804.59;;;25.49;45.69
31299;BME280;17927;52.350;13.402;2022-08-01T02:28:51;100801.97;;;25.42;45.89
31299;BME280;17927;52.350;13.402;2022-08-01T02:31:20;100807.31;;;25.37;46.13
31299;BME280;17927;52.350;13.402;2022-08-01T02:33:53;100805.28;;;25.32;46.08
31299;BME280;17927;52.350;13.402;2022-08-01T02:36:21;100813.22;;;25.29;46.22
31299;BME280;17927;52.350;13.402;2022-08-01T02:38:49;100805.41;;;25.26;46.11
31299;BME280;17927;52.350;13.402;2022-08-01T02:41:19;100804.56;;;25.25;46.90
31299;BME280;17927;52.350;13.402;2022-08-01T02:43:47;100804.19;;;25.21;46.57
31299;BME280;17927;52.350;13.402;2022-08-01T02:46:18;100801.69;;;25.20;46.86
31299;BME280;17927;52.350;13.402;2022-08-01T02:48:45;100809.13;;;25.19;46.52
31299;BME280;17927;52.350;13.402;2022-08-01T02:51:14;100804.94;;;25.17;46.90
31299;BME280;17927;52.350;13.402;2022-08-01T02:53:42;100797.34;;;25.12;47.22
31299;BME280;17927;52.350;13.402;2022-08-01T02:56:08;100802.75;;;25.07;47.08
31299;BME280;17927;52.350;13.402;2022-08-01T02:58:36;100802.63;;;25.02;47.02
31299;BME280;17927;52.350;13.402;2022-08-01T03:01:04;100807.78;;;24.98;47.45
31299;BME280;17927;52.350;13.402;2022-08-01T03:03:30;100811.72;;;24.90;47.73
31299;BME280;17927;52.350;13.402;2022-08-01T03:05:57;100802.47;;;24.85;47.64
31299;BME280;17927;52.350;13.402;2022-08-01T03:08:23;100812.56;;;24.79;47.67
31299;BME280;17927;52.350;13.402;2022-08-01T03:10:49;100817.34;;;24.72;48.16
31299;BME280;17927;52.350;13.402;2022-08-01T03:13:17;100816.31;;;24.66;48.30
31299;BME280;17927;52.350;13.402;2022-08-01T03:15:44;100815.09;;;24.62;48.56
31299;BME280;17927;52.350;13.402;2022-08-01T03:18:10;100813.06;;;24.57;48.72
31299;BME280;17927;52.350;13.402;2022-08-01T03:20:37;100815.47;;;24.54;48.74
31299;BME280;17927;52.350;13.402;2022-08-01T03:23:06;100821.22;;;24.52;48.81
31299;BME280;17927;52.350;13.402;2022-08-01T03:25:33;100822.31;;;24.51;48.88
31299;BME280;17927;52.350;13.402;2022-08-01T03:28:02;100821.06;;;24.47;49.22
31299;BME280;17927;52.350;13.402;2022-08-01T03:30:29;100824.06;;;24.45;49.44
31299;BME280;17927;52.350;13.402;2022-08-01T03:32:55;100820.47;;;24.45;49.25
31299;BME280;17927;52.350;13.402;2022-08-01T03:35:21;100822.97;;;24.46;49.26
31299;BME280;17927;52.350;13.402;2022-08-01T03:37:51;100819.63;;;24.44;49.85
31299;BME280;17927;52.350;13.402;2022-08-01T03:40:23;100821.28;;;24.45;50.02
31299;BME280;17927;52.350;13.402;2022-08-01T03:42:58;100822.41;;;24.44;50.04
31299;BME280;17927;52.350;13.402;2022-08-01T03:45:27;100819.63;;;24.44;50.03
31299;BME280;17927;52.350;13.402;2022-08-01T03:47:59;100822.41;;;24.44;50.25
31299;BME280;17927;52.350;13.402;2022-08-01T03:50:25;100831.03;;;24.48;49.89
31299;BME280;17927;52.350;13.402;2022-08-01T03:52:53;100830.59;;;24.51;49.95
31299;BME280;17927;52.350;13.402;2022-08-01T03:55:20;100828.41;;;24.53;50.28
31299;BME280;17927;52.350;13.402;2022-08-01T03:57:46;100832.28;;;24.52;50.54
31299;BME280;17927;52.350;13.402;2022-08-01T04:00:13;100825.63;;;24.53;50.59
31299;BME280;17927;52.350;13.402;2022-08-01T04:02:43;100830.34;;;24.53;50.18
31299;BME280;17927;52.350;13.402;2022-08-01T04:05:09;100823.50;;;24.55;50.58
31299;BME280;17927;52.350;13.402;2022-08-01T04:07:34;100829.63;;;24.57;50.34
31299;BME280;17927;52.350;13.402;2022-08-01T04:10:05;100825.78;;;24.58;50.54
31299;BME280;17927;52.350;13.402;2022-08-01T04:12:31;100827.22;;;24.61;50.64
31299;BME280;17927;52.350;13.402;2022-08-01T04:14:56;100828.22;;;24.67;50.84
31299;BME280;17927;52.350;13.402;2022-08-01T04:17:21;100832.44;;;24.69;51.00
31299;BME280;17927;52.350;13.402;2022-08-01T04:19:46;100827.31;;;24.73;50.54
31299;BME280;17927;52.350;13.402;2022-08-01T04:22:14;100839.31;;;24.78;50.74
31299;BME280;17927;52.350;13.402;2022-08-01T04:24:41;100835.88;;;24.83;50.71
31299;BME280;17927;52.350;13.402;2022-08-01T04:27:13;100835.38;;;24.86;50.77
31299;BME280;17927;52.350;13.402;2022-08-01T04:29:39;100840.44;;;24.89;50.54
31299;BME280;17927;52.350;13.402;2022-08-01T04:32:07;100831.94;;;24.91;50.52
31299;BME280;17927;52.350;13.402;2022-08-01T04:34:34;100837.22;;;24.92;50.61
31299;BME280;17927;52.350;13.402;2022-08-01T04:37:02;100842.72;;;24.92;50.30
31299;BME280;17927;52.350;13.402;2022-08-01T04:39:30;100833.97;;;24.96;50.51
31299;BME280;17927;52.350;13.402;2022-08-01T04:41:58;100845.84;;;24.96;50.97
31299;BME280;17927;52.350;13.402;2022-08-01T04:44:25;100838.41;;;24.97;50.94
31299;BME280;17927;52.350;13.402;2022-08-01T04:46:52;100841.78;;;24.99;50.97
31299;BME280;17927;52.350;13.402;2022-08-01T04:49:19;100854.75;;;24.98;50.73
31299;BME280;17927;52.350;13.402;2022-08-01T04:51:52;100850.91;;;24.99;51.35
31299;BME280;17927;52.350;13.402;2022-08-01T04:54:24;100847.06;;;25.00;50.79
31299;BME280;17927;52.350;13.402;2022-08-01T04:56:49;100856.19;;;25.01;51.25
31299;BME280;17927;52.350;13.402;2022-08-01T04:59:15;100858.72;;;25.02;51.30
31299;BME280;17927;52.350;13.402;2022-08-01T05:02:03;100857.03;;;25.01;51.10
31299;BME280;17927;52.350;13.402;2022-08-01T05:04:28;100862.31;;;25.03;51.52
31299;BME280;17927;52.350;13.402;2022-08-01T05:06:54;100854.44;;;25.06;51.25
31299;BME280;17927;52.350;13.402;2022-08-01T05:09:19;100855.00;;;25.08;51.50
31299;BME280;17927;52.350;13.402;2022-08-01T05:11:45;100859.22;;;25.11;51.56
31299;BME280;17927;52.350;13.402;2022-08-01T05:14:10;100858.97;;;25.13;51.66
31299;BME280;17927;52.350;13.402;2022-08-01T05:16:35;100858.75;;;25.14;51.83
31299;BME280;17927;52.350;13.402;2022-08-01T05:19:01;100856.34;;;25.18;52.13
31299;BME280;17927;52.350;13.402;2022-08-01T05:21:27;100861.88;;;25.18;51.88
31299;BME280;17927;52.350;13.402;2022-08-01T05:23:52;100861.03;;;25.17;52.25
31299;BME280;17927;52.350;13.402;2022-08-01T05:26:18;100857.19;;;25.18;52.21
31299;BME280;17927;52.350;13.402;2022-08-01T05:28:43;100862.72;;;25.18;52.10
31299;BME280;17927;52.350;13.402;2022-08-01T05:31:08;100862.25;;;25.21;52.46
31299;BME280;17927;52.350;13.402;2022-08-01T05:33:33;100859.63;;;25.27;52.41
31299;BME280;17927;52.350;13.402;2022-08-01T05:35:59;100857.81;;;25.32;52.41
31299;BME280;17927;52.350;13.402;2022-08-01T05:38:24;100854.31;;;25.37;52.88
31299;BME280;17927;52.350;13.402;2022-08-01T05:40:49;100862.97;;;25.41;52.69
31299;BME280;17927;52.350;13.402;2022-08-01T05:43:14;100859.75;;;25.44;52.38
31299;BME280;17927;52.350;13.402;2022-08-01T05:45:40;100860.97;;;25.48;52.49
31299;BME280;17927;52.350;13.402;2022-08-01T05:48:06;100868.53;;;25.52;52.67
31299;BME280;17927;52.350;13.402;2022-08-01T05:50:32;100863.38;;;25.56;52.73
31299;BME280;17927;52.350;13.402;2022-08-01T05:52:57;100860.38;;;25.58;52.44
31299;BME280;17927;52.350;13.402;2022-08-01T05:55:23;100864.31;;;25.62;52.67
31299;BME280;17927;52.350;13.402;2022-08-01T05:57:48;100871.91;;;25.66;52.58
31299;BME280;17927;52.350;13.402;2022-08-01T06:00:13;100869.25;;;25.72;52.65
31299;BME280;17927;52.350;13.402;2022-08-01T06:02:41;100856.16;;;25.79;52.52
31299;BME280;17927;52.350;13.402;2022-08-01T06:05:07;100867.09;;;25.86;52.71
31299;BME280;17927;52.350;13.402;2022-08-01T06:07:32;100870.19;;;25.89;52.55
31299;BME280;17927;52.350;13.402;2022-08-01T06:09:58;100868.88;;;25.92;52.20
31299;BME280;17927;52.350;13.402;2022-08-01T06:12:23;100862.25;;;25.93;52.22
31299;BME280;17927;52.350;13.402;2022-08-01T06:14:48;100875.59;;;25.96;52.15
31299;BME280;17927;52.350;13.402;2022-08-01T06:17:13;100870.66;;;25.98;52.38
31299;BME280;17927;52.350;13.402;2022-08-01T06:19:39;100878.50;;;26.01;52.25
31299;BME280;17927;52.350;13.402;2022-08-01T06:22:04;100876.66;;;26.07;52.32
31299;BME280;17927;52.350;13.402;2022-08-01T06:24:29;100877.66;;;26.12;52.50
31299;BME280;17927;52.350;13.402;2022-08-01T06:26:54;100868.38;;;26.19;52.21
31299;BME280;17927;52.350;13.402;2022-08-01T06:29:19;100872.34;;;26.23;52.31
31299;BME280;17927;52.350;13.402;2022-08-01T06:31:45;100874.38;;;26.27;52.37
31299;BME280;17927;52.350;13.402;2022-08-01T06:34:10;100872.53;;;26.33;52.23
31299;BME280;17927;52.350;13.402;2022-08-01T06:36:35;100879.84;;;26.39;52.06
31299;BME280;17927;52.350;13.402;2022-08-01T06:39:00;100884.41;;;26.45;52.26
31299;BME280;17927;52.350;13.402;2022-08-01T06:41:26;100875.34;;;26.50;52.18
31299;BME280;17927;52.350;13.402;2022-08-01T06:43:51;100887.38;;;26.56;52.07
31299;BME280;17927;52.350;13.402;2022-08-01T06:46:16;100887.38;;;26.56;51.81
31299;BME280;17927;52.350;13.402;2022-08-01T06:48:42;100887.38;;;26.56;51.58
31299;BME280;17927;52.350;13.402;2022-08-01T06:51:07;100882.09;;;26.54;51.68
31299;BME280;17927;52.350;13.402;2022-08-01T06:53:34;100891.97;;;26.50;51.68
31299;BME280;17927;52.350;13.402;2022-08-01T06:55:59;100895.25;;;26.47;51.98
31299;BME280;17927;52.350;13.402;2022-08-01T06:58:24;100889.84;;;26.40;52.18
31299;BME280;17927;52.350;13.402;2022-08-01T07:00:50;100898.88;;;26.36;52.34
31299;BME280;17927;52.350;13.402;2022-08-01T07:03:15;100894.09;;;26.31;52.49
31299;BME280;17927;52.350;13.402;2022-08-01T07:05:40;100897.34;;;26.28;52.68
31299;BME280;17927;52.350;13.402;2022-08-01T07:08:06;100900.47;;;26.32;53.26
31299;BME280;17927;52.350;13.402;2022-08-01T07:10:31;100904.41;;;26.36;53.29
31299;BME280;17927;52.350;13.402;2022-08-01T07:12:56;100903.69;;;26.40;53.59
31299;BME280;17927;52.350;13.402;2022-08-01T07:15:22;100897.06;;;26.41;53.21
31299;BME280;17927;52.350;13.402;2022-08-01T07:17:51;100900.44;;;26.43;52.82
31299;BME280;17927;52.350;13.402;2022-08-01T07:20:16;100893.19;;;26.42;53.07
31299;BME280;17927;52.350;13.402;2022-08-01T07:22:42;100904.28;;;26.42;52.79
31299;BME280;17927;52.350;13.402;2022-08-01T07:25:08;100905.38;;;26.41;52.97
31299;BME280;17927;52.350;13.402;2022-08-01T07:27:34;100905.63;;;26.40;53.27
31299;BME280;17927;52.350;13.402;2022-08-01T07:29:59;100895.38;;;26.40;53.61
31299;BME280;17927;52.350;13.402;2022-08-01T07:32:25;100905.38;;;26.41;53.64
31299;BME280;17927;52.350;13.402;2022-08-01T07:34:50;100907.91;;;26.43;53.76
31299;BME280;17927;52.350;13.402;2022-08-01T07:37:15;100908.00;;;26.48;53.86
31299;BME280;17927;52.350;13.402;2022-08-01T07:39:41;100909.19;;;26.52;53.66
31299;BME280;17927;52.350;13.402;2022-08-01T07:42:06;100905.66;;;26.57;53.64
31299;BME280;17927;52.350;13.402;2022-08-01T07:44:31;100919.91;;;26.60;53.62
31299;BME280;17927;52.350;13.402;2022-08-01T07:46:57;100907.47;;;26.63;53.70
31299;BME280;17927;52.350;13.402;2022-08-01T07:49:22;100913.59;;;26.65;53.75
31299;BME280;17927;52.350;13.402;2022-08-01T07:51:47;100913.84;;;26.64;53.74
31299;BME280;17927;52.350;13.402;2022-08-01T07:54:13;100924.09;;;26.63;53.81
31299;BME280;17927;52.350;13.402;2022-08-01T07:56:38;100929.28;;;26.59;53.67
31299;BME280;17927;52.350;13.402;2022-08-01T07:59:03;100928.91;;;26.56;53.81
31299;BME280;17927;52.350;13.402;2022-08-01T08:01:28;100924.97;;;26.52;53.79
31299;BME280;17927;52.350;13.402;2022-08-01T08:03:53;100929.66;;;26.51;53.91
31299;BME280;17927;52.350;13.402;2022-08-01T08:06:19;100937.13;;;26.51;53.96
31299;BME280;17927;52.350;13.402;2022-08-01T08:08:44;100935.19;;;26.51;54.15
31299;BME280;17927;52.350;13.402;2022-08-01T08:11:09;100930.84;;;26.55;54.37
31299;BME280;17927;52.350;13.402;2022-08-01T08:13:34;100940.09;;;26.61;54.27
31299;BME280;17927;52.350;13.402;2022-08-01T08:16:00;100933.81;;;26.66;54.17
31299;BME280;17927;52.350;13.402;2022-08-01T08:18:25;100937.78;;;26.70;54.04
31299;BME280;17927;52.350;13.402;2022-08-01T08:20:51;100935.13;;;26.75;54.08
31299;BME280;17927;52.350;13.402;2022-08-01T08:23:16;100937.19;;;26.80;53.84
31299;BME280;17927;52.350;13.402;2022-08-01T08:26:00;100941.88;;;26.79;53.67
31299;BME280;17927;52.350;13.402;2022-08-01T08:28:25;100942.72;;;26.80;53.45
31299;BME280;17927;52.350;13.402;2022-08-01T08:30:50;100941.75;;;26.74;53.28
31299;BME280;17927;52.350;13.402;2022-08-01T08:33:18;100936.72;;;26.71;53.28
31299;BME280;17927;52.350;13.402;2022-08-01T08:35:43;100934.09;;;26.64;53.29
31299;BME280;17927;52.350;13.402;2022-08-01T08:38:08;100949.84;;;26.64;53.56
31299;BME280;17927;52.350;13.402;2022-08-01T08:40:35;100942.41;;;26.64;53.67
31299;BME280;17927;52.350;13.402;2022-08-01T08:43:03;100953.00;;;26.67;53.82
31299;BME280;17927;52.350;13.402;2022-08-01T08:45:29;100939.22;;;26.72;53.79
31299;BME280;17927;52.350;13.402;2022-08-01T08:47:55;100945.00;;;26.83;53.62
31299;BME280;17927;52.350;13.402;2022-08-01T08:50:22;100948.81;;;26.94;53.44
31299;BME280;17927;52.350;13.402;2022-08-01T08:52:47;100949.81;;;27.04;53.12
31299;BME280;17927;52.350;13.402;2022-08-01T08:55:15;100947.84;;;27.17;53.36
31299;BME280;17927;52.350;13.402;2022-08-01T08:57:43;100943.16;;;27.34;53.27
31299;BME280;17927;52.350;13.402;2022-08-01T09:00:10;100951.25;;;27.53;53.52
31299;BME280;17927;52.350;13.402;2022-08-01T09:02:43;100955.38;;;27.68;52.77
31299;BME280;17927;52.350;13.402;2022-08-01T09:05:09;100957.75;;;27.76;52.02
31299;BME280;17927;52.350;13.402;2022-08-01T09:07:35;100961.66;;;27.80;51.07
31299;BME280;17927;52.350;13.402;2022-08-01T09:10:00;100960.84;;;27.79;50.52
31299;BME280;17927;52.350;13.402;2022-08-01T09:12:26;100960.84;;;27.79;50.36
31299;BME280;17927;52.350;13.402;2022-08-01T09:14:51;100965.88;;;27.83;50.03
31299;BME280;17927;52.350;13.402;2022-08-01T09:17:18;100969.56;;;27.88;50.24
31299;BME280;17927;52.350;13.402;2022-08-01T09:19:50;100975.22;;;27.93;49.84
31299;BME280;17927;52.350;13.402;2022-08-01T09:22:20;100972.69;;;27.92;49.60
31299;BME280;17927;52.350;13.402;2022-08-01T09:25:08;100979.59;;;27.89;49.43
31299;BME280;17927;52.350;13.402;2022-08-01T09:27:34;100974.53;;;27.86;49.28
31299;BME280;17927;52.350;13.402;2022-08-01T09:30:17;100982.03;;;27.86;48.95
31299;BME280;17927;52.350;13.402;2022-08-01T09:33:00;100992.78;;;27.82;48.61
31299;BME280;17927;52.350;13.402;2022-08-01T09:35:32;100989.69;;;27.78;48.70
31299;BME280;17927;52.350;13.402;2022-08-01T09:38:22;100996.59;;;27.76;48.38
31299;BME280;17927;52.350;13.402;2022-08-01T09:40:55;100994.56;;;27.71;48.49
31299;BME280;17927;52.350;13.402;2022-08-01T09:43:22;100997.34;;;27.71;48.60
31299;BME280;17927;52.350;13.402;2022-08-01T09:45:48;100986.47;;;27.70;48.34
31299;BME280;17927;52.350;13.402;2022-08-01T09:48:13;100996.41;;;27.65;47.97
31299;BME280;17927;52.350;13.402;2022-08-01T09:50:42;100998.84;;;27.62;48.11
31299;BME280;17927;52.350;13.402;2022-08-01T09:53:09;101004.97;;;27.64;48.09
31299;BME280;17927;52.350;13.402;2022-08-01T09:55:35;101011.94;;;27.66;48.12
31299;BME280;17927;52.350;13.402;2022-08-01T09:58:00;101006.50;;;27.72;47.99
31299;BME280;17927;52.350;13.402;2022-08-01T10:00:26;101009.38;;;27.77;47.77
31299;BME280;17927;52.350;13.402;2022-08-01T10:02:52;101013.81;;;27.78;47.61
31299;BME280;17927;52.350;13.402;2022-08-01T10:05:17;101003.88;;;27.82;47.51
31299;BME280;17927;52.350;13.402;2022-08-01T10:08:02;101005.06;;;27.86;47.59
31299;BME280;17927;52.350;13.402;2022-08-01T10:10:29;101016.16;;;27.86;47.57
31299;BME280;17927;52.350;13.402;2022-08-01T10:12:56;101013.97;;;27.88;47.56
31299;BME280;17927;52.350;13.402;2022-08-01T10:15:23;101015.06;;;27.87;47.70
31299;BME280;17927;52.350;13.402;2022-08-01T10:17:57;101020.03;;;27.85;47.48
31299;BME280;17927;52.350;13.402;2022-08-01T10:20:28;101015.25;;;27.80;47.23
31299;BME280;17927;52.350;13.402;2022-08-01T10:22:54;101017.34;;;27.56;47.80
31299;BME280;17927;52.350;13.402;2022-08-01T10:25:21;101025.16;;;27.59;47.68
31299;BME280;17927;52.350;13.402;2022-08-01T10:27:49;101022.13;;;27.61;47.12
31299;BME280;17927;52.350;13.402;2022-08-01T10:30:15;101022.38;;;27.59;47.02
31299;BME280;17927;52.350;13.402;2022-08-01T10:32:41;101031.22;;;27.56;47.19
31299;BME280;17927;52.350;13.402;2022-08-01T10:35:08;101020.94;;;27.57;47.44
31299;BME280;17927;52.350;13.402;2022-08-01T10:37:34;101019.34;;;27.61;46.97
31299;BME280;17927;52.350;13.402;2022-08-01T10:40:02;101014.72;;;27.66;47.11
31299;BME280;17927;52.350;13.402;2022-08-01T10:42:30;101018.41;;;27.72;46.80
31299;BME280;17927;52.350;13.402;2022-08-01T10:44:56;101025.75;;;27.78;46.70
31299;BME280;17927;52.350;13.402;2022-08-01T10:47:28;101021.88;;;27.79;46.51
31299;BME280;17927;52.350;13.402;2022-08-01T10:50:04;101025.75;;;27.78;46.32
31299;BME280;17927;52.350;13.402;2022-08-01T10:52:32;101012.63;;;27.74;46.47
31299;BME280;17927;52.350;13.402;2022-08-01T10:55:04;101020.38;;;27.72;46.47
31299;BME280;17927;52.350;13.402;2022-08-01T10:57:46;101025.91;;;27.72;46.61
31299;BME280;17927;52.350;13.402;2022-08-01T11:00:19;101023.97;;;27.72;46.74
31299;BME280;17927;52.350;13.402;2022-08-01T11:02:59;101033.47;;;27.76;46.63
31299;BME280;17927;52.350;13.402;2022-08-01T11:05:27;101029.03;;;27.75;47.03
31299;BME280;17927;52.350;13.402;2022-08-01T11:07:53;101033.81;;;27.80;46.55
31299;BME280;17927;52.350;13.402;2022-08-01T11:10:24;101035.59;;;27.86;46.62
31299;BME280;17927;52.350;13.402;2022-08-01T11:12:50;101044.00;;;27.91;46.72
31299;BME280;17927;52.350;13.402;2022-08-01T11:15:17;101039.69;;;28.01;46.81
31299;BME280;17927;52.350;13.402;2022-08-01T11:17:50;101036.53;;;28.09;46.55
31299;BME280;17927;52.350;13.402;2022-08-01T11:20:21;101038.13;;;28.22;46.58
31299;BME280;17927;52.350;13.402;2022-08-01T11:28:18;101023.44;;;28.66;46.02
31299;BME280;17927;52.350;13.402;2022-08-01T11:30:53;101039.91;;;28.72;45.63
31299;BME280;17927;52.350;13.402;2022-08-01T11:38:37;101041.56;;;28.91;45.08
31299;BME280;17927;52.350;13.402;2022-08-01T11:41:25;101045.44;;;28.90;44.68
31299;BME280;17927;52.350;13.402;2022-08-01T11:44:04;101048.16;;;28.84;44.50
31299;BME280;17927;52.350;13.402;2022-08-01T11:46:49;101058.38;;;28.79;44.29
31299;BME280;17927;52.350;13.402;2022-08-01T11:52:13;101054.84;;;28.66;44.18
31299;BME280;17927;52.350;13.402;2022-08-01T11:54:57;101064.81;;;28.62;44.05
31299;BME280;17927;52.350;13.402;2022-08-01T11:57:26;101064.72;;;28.57;44.34
31299;BME280;17927;52.350;13.402;2022-08-01T11:59:54;101063.56;;;28.53;44.22
31299;BME280;17927;52.350;13.402;2022-08-01T12:04:55;101067.69;;;28.50;44.26
31299;BME280;17927;52.350;13.402;2022-08-01T12:07:21;101058.00;;;28.53;44.65
31299;BME280;17927;52.350;13.402;2022-08-01T12:09:48;101065.00;;;28.55;44.29
31299;BME280;17927;52.350;13.402;2022-08-01T12:12:17;101067.25;;;28.59;44.34
31299;BME280;17927;52.350;13.402;2022-08-01T12:14:43;101062.53;;;28.59;44.21
31299;BME280;17927;52.350;13.402;2022-08-01T12:17:08;101061.75;;;28.64;44.47
31299;BME280;17927;52.350;13.402;2022-08-01T12:19:33;101064.28;;;28.65;44.19
31299;BME280;17927;52.350;13.402;2022-08-01T12:22:12;101063.25;;;28.71;44.07
31299;BME280;17927;52.350;13.402;2022-08-01T12:24:39;101069.50;;;28.79;44.33
31299;BME280;17927;52.350;13.402;2022-08-01T12:27:06;101071.00;;;28.86;44.29
31299;BME280;17927;52.350;13.402;2022-08-01T12:29:40;101072.22;;;28.96;44.41
31299;BME280;17927;52.350;13.402;2022-08-01T12:34:50;101067.41;;;29.13;44.84
31299;BME280;17927;52.350;13.402;2022-08-01T12:37:16;101059.44;;;29.22;44.48
31299;BME280;17927;52.350;13.402;2022-08-01T12:39:43;101064.81;;;29.29;44.19
31299;BME280;17927;52.350;13.402;2022-08-01T12:42:09;101062.59;;;29.31;43.91
31299;BME280;17927;52.350;13.402;2022-08-01T12:44:35;101060.91;;;29.30;43.77
31299;BME280;17927;52.350;13.402;2022-08-01T12:47:04;101071.19;;;29.29;43.80
31299;BME280;17927;52.350;13.402;2022-08-01T12:49:31;101063.41;;;29.26;43.61
31299;BME280;17927;52.350;13.402;2022-08-01T12:51:56;101075.28;;;29.22;43.82
31299;BME280;17927;52.350;13.402;2022-08-01T12:54:22;101062.16;;;29.17;43.76
31299;BME280;17927;52.350;13.402;2022-08-01T12:56:49;101074.66;;;29.14;43.44
31299;BME280;17927;52.350;13.402;2022-08-01T12:59:26;101070.47;;;29.12;43.19
31299;BME280;17927;52.350;13.402;2022-08-01T13:01:53;101064.63;;;29.13;43.29
31299;BME280;17927;52.350;13.402;2022-08-01T13:04:18;101064.44;;;29.20;43.39
31299;BME280;17927;52.350;13.402;2022-08-01T13:06:43;101069.84;;;29.32;43.85
31299;BME280;17927;52.350;13.402;2022-08-01T13:09:09;101070.84;;;29.43;43.75